sensor_id;sensor_type;location;lat;lon;timestamp;temperature;humidity
6443;DHT22;3254;47.372;8.512;2023-02-15T00:01:50;-0.10;99.90
6443;DHT22;3254;47.372;8.512;2023-02-15T00:04:19;-0.10;99.90
6443;DHT22;3254;47.372;8.512;2023-02-15T00:06:45;-0.10;99.90
6443;DHT22;3254;47.372;8.512;2023-02-15T00:09:11;-0.10;99.90
6443;DHT22;3254;47.372;8.512;2023-02-15T00:11:38;-0.10;99.90
6443;DHT22;3254;47.372;8.512;2023-02-15T00:14:31;-0.10;99.90
6443;DHT22;3254;47.372;8.512;2023-02-15T00:16:57;-0.10;99.90
6443;DHT22;3254;47.372;8.512;2023-02-15T00:19:26;-0.10;99.90
6443;DHT22;3254;47.372;8.512;2023-02-15T00:21:53;-0.10;99.90
6443;DHT22;3254;47.372;8.512;2023-02-15T00:24:19;-0.10;99.90
6443;DHT22;3254;47.372;8.512;2023-02-15T00:26:46;0.00;99.90
6443;DHT22;3254;47.372;8.512;2023-02-15T00:29:13;0.00;99.90
6443;DHT22;3254;47.372;8.512;2023-02-15T00:31:39;0.00;99.90
6443;DHT22;3254;47.372;8.512;2023-02-15T00:34:07;0.00;99.90
6443;DHT22;3254;47.372;8.512;2023-02-15T00:36:33;0.10;99.90
6443;DHT22;3254;47.372;8.512;2023-02-15T00:38:59;0.00;99.90
6443;DHT22;3254;47.372;8.512;2023-02-15T00:41:25;0.00;99.90
6443;DHT22;3254;47.372;8.512;2023-02-15T00:43:51;0.00;99.90
6443;DHT22;3254;47.372;8.512;2023-02-15T00:46:16;0.00;99.90
6443;DHT22;3254;47.372;8.512;2023-02-15T00:48:44;0.00;99.90
6443;DHT22;3254;47.372;8.512;2023-02-15T00:51:10;0.00;99.90
6443;DHT22;3254;47.372;8.512;2023-02-15T00:53:35;0.10;99.90
6443;DHT22;3254;47.372;8.512;2023-02-15T00:56:01;0.10;99.90
6443;DHT22;3254;47.372;8.512;2023-02-15T00:58:26;0.00;99.90
6443;DHT22;3254;47.372;8.512;2023-02-15T01:00:53;0.00;99.90
6443;DHT22;3254;47.372;8.512;2023-02-15T01:03:20;0.00;99.90
6443;DHT22;3254;47.372;8.512;2023-02-15T01:05:48;0.00;99.90
6443;DHT22;3254;47.372;8.512;2023-02-15T01:08:14;0.10;99.90
6443;DHT22;3254;47.372;8.512;2023-02-15T01:10:39;0.10;99.90
6443;DHT22;3254;47.372;8.512;2023-02-15T01:13:07;0.10;99.90
6443;DHT22;3254;47.372;8.512;2023-02-15T01:15:34;0.10;99.90
6443;DHT22;3254;47.372;8.512;2023-02-15T01:18:00;0.10;99.90
6443;DHT22;3254;47.372;8.512;2023-02-15T01:20:33;0.00;99.90
6443;DHT22;3254;47.372;8.512;2023-02-15T01:22:59;0.00;99.90
6443;DHT22;3254;47.372;8.512;2023-02-15T01:25:25;-0.10;99.90
6443;DHT22;3254;47.372;8.512;2023-02-15T01:27:50;-0.10;99.90
6443;DHT22;3254;47.372;8.512;2023-02-15T01:30:16;-0.10;99.90
6443;DHT22;3254;47.372;8.512;2023-02-15T01:32:42;-0.10;99.90
6443;DHT22;3254;47.372;8.512;2023-02-15T01:35:10;-0.10;99.90
6443;DHT22;3254;47.372;8.512;2023-02-15T01:37:36;-0.10;99.90
6443;DHT22;3254;47.372;8.512;2023-02-15T01:40:08;-0.10;99.90
6443;DHT22;3254;47.372;8.512;2023-02-15T01:42:36;-0.10;99.90
6443;DHT22;3254;47.372;8.512;2023-02-15T01:45:04;-0.20;99.90
6443;DHT22;3254;47.372;8.512;2023-02-15T01:47:41;-0.20;99.90
6443;DHT22;3254;47.372;8.512;2023-02-15T01:50:18;-0.20;99.90
6443;DHT22;3254;47.372;8.512;2023-02-15T01:55:55;-0.20;99.90
6443;DHT22;3254;47.372;8.512;2023-02-15T01:58:23;-0.20;99.90
6443;DHT22;3254;47.372;8.512;2023-02-15T02:00:51;-0.20;99.90
6443;DHT22;3254;47.372;8.512;2023-02-15T02:03:20;-0.20;99.90
6443;DHT22;3254;47.372;8.512;2023-02-15T02:05:52;-0.10;99.90
6443;DHT22;3254;47.372;8.512;2023-02-15T02:08:19;-0.10;99.90
6443;DHT22;3254;47.372;8.512;2023-02-15T02:10:47;-0.20;99.90
6443;DHT22;3254;47.372;8.512;2023-02-15T02:13:13;-0.20;99.90
6443;DHT22;3254;47.372;8.512;2023-02-15T02:18:41;-0.20;99.90
6443;DHT22;3254;47.372;8.512;2023-02-15T02:30:06;-0.20;99.90
6443;DHT22;3254;47.372;8.512;2023-02-15T02:33:07;-0.20;99.90
6443;DHT22;3254;47.372;8.512;2023-02-15T02:39:06;-0.20;99.90
6443;DHT22;3254;47.372;8.512;2023-02-15T02:47:15;0.00;99.90
6443;DHT22;3254;47.372;8.512;2023-02-15T02:49:43;0.00;99.90
6443;DHT22;3254;47.372;8.512;2023-02-15T02:52:35;0.00;99.90
6443;DHT22;3254;47.372;8.512;2023-02-15T02:55:05;-0.10;99.90
6443;DHT22;3254;47.372;8.512;2023-02-15T02:57:32;0.00;99.90
6443;DHT22;3254;47.372;8.512;2023-02-15T03:00:02;0.00;99.90
6443;DHT22;3254;47.372;8.512;2023-02-15T03:02:32;0.00;99.90
6443;DHT22;3254;47.372;8.512;2023-02-15T03:05:07;-0.10;99.90
6443;DHT22;3254;47.372;8.512;2023-02-15T03:07:35;-0.10;99.90
6443;DHT22;3254;47.372;8.512;2023-02-15T03:10:05;-0.20;99.90
6443;DHT22;3254;47.372;8.512;2023-02-15T03:12:35;-0.20;99.90
6443;DHT22;3254;47.372;8.512;2023-02-15T03:18:14;-0.60;99.90
6443;DHT22;3254;47.372;8.512;2023-02-15T03:20:40;-0.60;99.90
6443;DHT22;3254;47.372;8.512;2023-02-15T03:23:21;-0.60;99.90
6443;DHT22;3254;47.372;8.512;2023-02-15T03:25:57;-0.60;99.90
6443;DHT22;3254;47.372;8.512;2023-02-15T03:28:36;-0.60;99.90
6443;DHT22;3254;47.372;8.512;2023-02-15T03:31:05;-0.60;99.90
6443;DHT22;3254;47.372;8.512;2023-02-15T03:33:37;-0.60;99.90
6443;DHT22;3254;47.372;8.512;2023-02-15T03:36:21;-0.50;99.90
6443;DHT22;3254;47.372;8.512;2023-02-15T03:41:39;-0.40;99.90
6443;DHT22;3254;47.372;8.512;2023-02-15T03:44:13;-0.40;99.90
6443;DHT22;3254;47.372;8.512;2023-02-15T03:46:47;-0.40;99.90
6443;DHT22;3254;47.372;8.512;2023-02-15T03:51:47;-0.20;99.90
6443;DHT22;3254;47.372;8.512;2023-02-15T03:54:20;-0.10;99.90
6443;DHT22;3254;47.372;8.512;2023-02-15T03:57:09;-0.20;99.90
6443;DHT22;3254;47.372;8.512;2023-02-15T03:59:55;-0.30;99.90
6443;DHT22;3254;47.372;8.512;2023-02-15T04:05:11;-0.40;99.90
6443;DHT22;3254;47.372;8.512;2023-02-15T04:07:36;-0.40;99.90
6443;DHT22;3254;47.372;8.512;2023-02-15T04:10:02;-0.50;99.90
6443;DHT22;3254;47.372;8.512;2023-02-15T04:12:46;-0.40;99.90
6443;DHT22;3254;47.372;8.512;2023-02-15T04:15:12;-0.50;99.90
6443;DHT22;3254;47.372;8.512;2023-02-15T04:17:57;-0.40;99.90
6443;DHT22;3254;47.372;8.512;2023-02-15T04:20:23;-0.40;99.90
6443;DHT22;3254;47.372;8.512;2023-02-15T04:23:09;-0.40;99.90
6443;DHT22;3254;47.372;8.512;2023-02-15T04:25:53;-0.40;99.90
6443;DHT22;3254;47.372;8.512;2023-02-15T04:28:19;-0.40;99.90
6443;DHT22;3254;47.372;8.512;2023-02-15T04:30:46;-0.30;99.90
6443;DHT22;3254;47.372;8.512;2023-02-15T04:33:15;-0.40;99.90
6443;DHT22;3254;47.372;8.512;2023-02-15T04:35:42;-0.40;99.90
6443;DHT22;3254;47.372;8.512;2023-02-15T04:38:10;-0.40;99.90
6443;DHT22;3254;47.372;8.512;2023-02-15T04:40:35;-0.50;99.90
6443;DHT22;3254;47.372;8.512;2023-02-15T04:43:01;-0.40;99.90
6443;DHT22;3254;47.372;8.512;2023-02-15T04:45:27;-0.50;99.90
6443;DHT22;3254;47.372;8.512;2023-02-15T04:47:53;-0.50;99.90
6443;DHT22;3254;47.372;8.512;2023-02-15T04:50:18;-0.50;99.90
6443;DHT22;3254;47.372;8.512;2023-02-15T04:52:44;-0.40;99.90
6443;DHT22;3254;47.372;8.512;2023-02-15T04:55:15;-0.50;99.90
6443;DHT22;3254;47.372;8.512;2023-02-15T04:57:41;-0.40;99.90
6443;DHT22;3254;47.372;8.512;2023-02-15T05:00:07;-0.50;99.90
6443;DHT22;3254;47.372;8.512;2023-02-15T05:02:34;-0.50;99.90
6443;DHT22;3254;47.372;8.512;2023-02-15T05:05:00;-0.40;99.90
6443;DHT22;3254;47.372;8.512;2023-02-15T05:07:27;-0.40;99.90
6443;DHT22;3254;47.372;8.512;2023-02-15T05:09:56;-0.40;99.90
6443;DHT22;3254;47.372;8.512;2023-02-15T05:12:25;-0.40;99.90
6443;DHT22;3254;47.372;8.512;2023-02-15T05:14:51;-0.30;99.90
6443;DHT22;3254;47.372;8.512;2023-02-15T05:17:16;-0.30;99.90
6443;DHT22;3254;47.372;8.512;2023-02-15T05:19:43;-0.30;99.90
6443;DHT22;3254;47.372;8.512;2023-02-15T05:22:10;-0.20;99.90
6443;DHT22;3254;47.372;8.512;2023-02-15T05:24:35;-0.30;99.90
6443;DHT22;3254;47.372;8.512;2023-02-15T05:27:19;-0.40;99.90
6443;DHT22;3254;47.372;8.512;2023-02-15T05:30:05;-0.50;99.90
6443;DHT22;3254;47.372;8.512;2023-02-15T05:32:37;-0.50;99.90
6443;DHT22;3254;47.372;8.512;2023-02-15T05:35:05;-0.40;99.90
6443;DHT22;3254;47.372;8.512;2023-02-15T05:37:31;-0.50;99.90
6443;DHT22;3254;47.372;8.512;2023-02-15T05:39:58;-0.60;99.90
6443;DHT22;3254;47.372;8.512;2023-02-15T05:42:24;-0.50;99.90
6443;DHT22;3254;47.372;8.512;2023-02-15T05:44:49;-0.60;99.90
6443;DHT22;3254;47.372;8.512;2023-02-15T05:47:16;-0.60;99.90
6443;DHT22;3254;47.372;8.512;2023-02-15T05:49:47;-0.60;99.90
6443;DHT22;3254;47.372;8.512;2023-02-15T05:52:12;-0.60;99.90
6443;DHT22;3254;47.372;8.512;2023-02-15T05:54:38;-0.60;99.90
6443;DHT22;3254;47.372;8.512;2023-02-15T05:57:05;-0.60;99.90
6443;DHT22;3254;47.372;8.512;2023-02-15T05:59:30;-0.50;99.90
6443;DHT22;3254;47.372;8.512;2023-02-15T06:01:57;-0.50;99.90
6443;DHT22;3254;47.372;8.512;2023-02-15T06:04:23;-0.40;99.90
6443;DHT22;3254;47.372;8.512;2023-02-15T06:06:48;-0.40;99.90
6443;DHT22;3254;47.372;8.512;2023-02-15T06:09:14;-0.40;99.90
6443;DHT22;3254;47.372;8.512;2023-02-15T06:11:39;-0.40;99.90
6443;DHT22;3254;47.372;8.512;2023-02-15T06:14:05;-0.40;99.90
6443;DHT22;3254;47.372;8.512;2023-02-15T06:16:31;-0.40;99.90
6443;DHT22;3254;47.372;8.512;2023-02-15T06:18:56;-0.40;99.90
6443;DHT22;3254;47.372;8.512;2023-02-15T06:21:22;-0.40;99.90
6443;DHT22;3254;47.372;8.512;2023-02-15T06:23:47;-0.40;99.90
6443;DHT22;3254;47.372;8.512;2023-02-15T06:26:13;-0.40;99.90
6443;DHT22;3254;47.372;8.512;2023-02-15T06:28:39;-0.40;99.90
6443;DHT22;3254;47.372;8.512;2023-02-15T06:31:06;-0.40;99.90
6443;DHT22;3254;47.372;8.512;2023-02-15T06:33:32;-0.40;99.90
6443;DHT22;3254;47.372;8.512;2023-02-15T06:35:59;-0.40;99.90
6443;DHT22;3254;47.372;8.512;2023-02-15T06:38:25;-0.40;99.90
6443;DHT22;3254;47.372;8.512;2023-02-15T06:40:50;-0.40;99.90
6443;DHT22;3254;47.372;8.512;2023-02-15T06:43:21;-0.40;99.90
6443;DHT22;3254;47.372;8.512;2023-02-15T06:45:47;-0.50;99.90
6443;DHT22;3254;47.372;8.512;2023-02-15T06:48:13;-0.50;99.90
6443;DHT22;3254;47.372;8.512;2023-02-15T06:50:39;-0.40;99.90
6443;DHT22;3254;47.372;8.512;2023-02-15T06:53:05;-0.30;99.90
6443;DHT22;3254;47.372;8.512;2023-02-15T06:55:30;-0.30;99.90
6443;DHT22;3254;47.372;8.512;2023-02-15T06:57:56;-0.20;99.90
6443;DHT22;3254;47.372;8.512;2023-02-15T07:00:22;-0.20;99.90
6443;DHT22;3254;47.372;8.512;2023-02-15T07:02:55;-0.10;99.90
6443;DHT22;3254;47.372;8.512;2023-02-15T07:05:25;-0.10;99.90
6443;DHT22;3254;47.372;8.512;2023-02-15T07:08:00;0.00;99.90
6443;DHT22;3254;47.372;8.512;2023-02-15T07:10:28;-0.20;99.90
6443;DHT22;3254;47.372;8.512;2023-02-15T07:12:54;-0.30;99.90
6443;DHT22;3254;47.372;8.512;2023-02-15T07:15:20;-0.20;99.90
6443;DHT22;3254;47.372;8.512;2023-02-15T07:17:47;-0.10;99.90
6443;DHT22;3254;47.372;8.512;2023-02-15T07:20:22;0.00;99.90
6443;DHT22;3254;47.372;8.512;2023-02-15T07:22:49;0.00;99.90
6443;DHT22;3254;47.372;8.512;2023-02-15T07:25:15;0.10;99.90
6443;DHT22;3254;47.372;8.512;2023-02-15T07:27:43;0.10;99.90
6443;DHT22;3254;47.372;8.512;2023-02-15T07:30:13;0.00;99.90
6443;DHT22;3254;47.372;8.512;2023-02-15T07:32:39;0.00;99.90
6443;DHT22;3254;47.372;8.512;2023-02-15T07:35:24;0.10;99.90
6443;DHT22;3254;47.372;8.512;2023-02-15T07:37:50;0.00;99.90
6443;DHT22;3254;47.372;8.512;2023-02-15T07:40:16;0.10;99.90
6443;DHT22;3254;47.372;8.512;2023-02-15T07:42:42;0.20;99.90
6443;DHT22;3254;47.372;8.512;2023-02-15T07:45:08;0.20;99.90
6443;DHT22;3254;47.372;8.512;2023-02-15T07:47:33;0.30;99.90
6443;DHT22;3254;47.372;8.512;2023-02-15T07:49:59;0.20;99.90
6443;DHT22;3254;47.372;8.512;2023-02-15T07:52:25;0.20;99.90
6443;DHT22;3254;47.372;8.512;2023-02-15T07:54:51;0.20;99.90
6443;DHT22;3254;47.372;8.512;2023-02-15T07:57:16;0.20;99.90
6443;DHT22;3254;47.372;8.512;2023-02-15T07:59:42;0.20;99.90
6443;DHT22;3254;47.372;8.512;2023-02-15T08:02:11;0.20;99.90
6443;DHT22;3254;47.372;8.512;2023-02-15T08:04:36;0.30;99.90
6443;DHT22;3254;47.372;8.512;2023-02-15T08:07:02;0.30;99.90
6443;DHT22;3254;47.372;8.512;2023-02-15T08:09:30;0.30;99.90
6443;DHT22;3254;47.372;8.512;2023-02-15T08:11:55;0.30;99.90
6443;DHT22;3254;47.372;8.512;2023-02-15T08:14:23;0.50;99.90
6443;DHT22;3254;47.372;8.512;2023-02-15T08:16:54;0.50;99.90
6443;DHT22;3254;47.372;8.512;2023-02-15T08:19:28;0.50;99.90
6443;DHT22;3254;47.372;8.512;2023-02-15T08:21:55;0.60;99.90
6443;DHT22;3254;47.372;8.512;2023-02-15T08:24:28;0.70;99.90
6443;DHT22;3254;47.372;8.512;2023-02-15T08:26:54;0.90;99.90
6443;DHT22;3254;47.372;8.512;2023-02-15T08:29:23;0.90;98.30
6443;DHT22;3254;47.372;8.512;2023-02-15T08:31:49;0.80;93.50
6443;DHT22;3254;47.372;8.512;2023-02-15T08:34:18;0.80;93.50
6443;DHT22;3254;47.372;8.512;2023-02-15T08:36:44;0.80;93.70
6443;DHT22;3254;47.372;8.512;2023-02-15T08:39:11;0.70;92.20
6443;DHT22;3254;47.372;8.512;2023-02-15T08:41:38;0.70;90.30
6443;DHT22;3254;47.372;8.512;2023-02-15T08:44:07;0.70;91.80
6443;DHT22;3254;47.372;8.512;2023-02-15T08:46:40;0.80;90.60
6443;DHT22;3254;47.372;8.512;2023-02-15T08:49:07;0.90;85.40
6443;DHT22;3254;47.372;8.512;2023-02-15T08:51:35;1.00;85.90
6443;DHT22;3254;47.372;8.512;2023-02-15T08:54:04;1.10;81.70
6443;DHT22;3254;47.372;8.512;2023-02-15T08:56:34;1.10;77.90
6443;DHT22;3254;47.372;8.512;2023-02-15T08:59:00;1.20;72.10
6443;DHT22;3254;47.372;8.512;2023-02-15T09:01:28;1.30;67.80
6443;DHT22;3254;47.372;8.512;2023-02-15T09:04:05;1.40;65.20
6443;DHT22;3254;47.372;8.512;2023-02-15T09:06:37;1.40;61.90
6443;DHT22;3254;47.372;8.512;2023-02-15T09:09:03;1.50;58.80
6443;DHT22;3254;47.372;8.512;2023-02-15T09:11:34;1.70;60.00
6443;DHT22;3254;47.372;8.512;2023-02-15T09:14:07;1.70;57.70
6443;DHT22;3254;47.372;8.512;2023-02-15T09:16:37;2.00;56.60
6443;DHT22;3254;47.372;8.512;2023-02-15T09:19:04;2.20;46.70
6443;DHT22;3254;47.372;8.512;2023-02-15T09:21:33;2.20;45.50
6443;DHT22;3254;47.372;8.512;2023-02-15T09:24:01;2.20;39.50
6443;DHT22;3254;47.372;8.512;2023-02-15T09:26:28;2.40;37.40
6443;DHT22;3254;47.372;8.512;2023-02-15T09:28:57;2.50;35.40
6443;DHT22;3254;47.372;8.512;2023-02-15T09:31:30;2.50;33.40
6443;DHT22;3254;47.372;8.512;2023-02-15T09:33:57;2.60;30.10
6443;DHT22;3254;47.372;8.512;2023-02-15T09:36:31;2.60;27.70
6443;DHT22;3254;47.372;8.512;2023-02-15T09:58:08;3.50;10.30
6443;DHT22;3254;47.372;8.512;2023-02-15T10:11:15;4.10;1.00
6443;DHT22;3254;47.372;8.512;2023-02-15T10:14:22;4.10;1.00
6443;DHT22;3254;47.372;8.512;2023-02-15T10:17:05;4.30;1.00
6443;DHT22;3254;47.372;8.512;2023-02-15T10:20:07;4.70;1.00
6443;DHT22;3254;47.372;8.512;2023-02-15T10:22:50;5.20;1.00
6443;DHT22;3254;47.372;8.512;2023-02-15T10:25:44;5.50;1.00
6443;DHT22;3254;47.372;8.512;2023-02-15T10:28:20;5.70;1.00
6443;DHT22;3254;47.372;8.512;2023-02-15T10:30:50;5.70;1.00
6443;DHT22;3254;47.372;8.512;2023-02-15T10:41:46;10.10;1.00
6443;DHT22;3254;47.372;8.512;2023-02-15T10:47:39;12.10;1.00
6443;DHT22;3254;47.372;8.512;2023-02-15T10:50:23;12.30;1.00
6443;DHT22;3254;47.372;8.512;2023-02-15T11:06:35;13.70;1.00
6443;DHT22;3254;47.372;8.512;2023-02-15T11:09:11;13.80;1.00
6443;DHT22;3254;47.372;8.512;2023-02-15T11:11:40;14.20;1.00
6443;DHT22;3254;47.372;8.512;2023-02-15T11:14:17;14.70;1.00
6443;DHT22;3254;47.372;8.512;2023-02-15T11:16:50;14.80;1.00
6443;DHT22;3254;47.372;8.512;2023-02-15T11:19:23;14.80;1.00
6443;DHT22;3254;47.372;8.512;2023-02-15T11:22:01;14.60;1.00
6443;DHT22;3254;47.372;8.512;2023-02-15T11:24:31;14.70;1.00
6443;DHT22;3254;47.372;8.512;2023-02-15T11:27:04;15.10;1.00
6443;DHT22;3254;47.372;8.512;2023-02-15T11:29:42;15.60;1.00
6443;DHT22;3254;47.372;8.512;2023-02-15T11:32:32;15.90;1.00
6443;DHT22;3254;47.372;8.512;2023-02-15T11:40:45;15.80;1.00
6443;DHT22;3254;47.372;8.512;2023-02-15T11:43:17;15.50;1.00
6443;DHT22;3254;47.372;8.512;2023-02-15T11:45:45;16.00;1.00
6443;DHT22;3254;47.372;8.512;2023-02-15T11:48:14;15.80;1.00
6443;DHT22;3254;47.372;8.512;2023-02-15T11:50:41;16.20;1.00
6443;DHT22;3254;47.372;8.512;2023-02-15T11:53:16;15.90;1.00
6443;DHT22;3254;47.372;8.512;2023-02-15T11:55:46;16.30;1.00
6443;DHT22;3254;47.372;8.512;2023-02-15T11:58:43;16.90;1.00
6443;DHT22;3254;47.372;8.512;2023-02-15T12:01:11;17.10;1.00
6443;DHT22;3254;47.372;8.512;2023-02-15T12:03:42;16.60;1.00
6443;DHT22;3254;47.372;8.512;2023-02-15T12:07:00;16.90;1.00
6443;DHT22;3254;47.372;8.512;2023-02-15T12:11:50;17.40;1.00
6443;DHT22;3254;47.372;8.512;2023-02-15T12:14:17;17.60;1.00
6443;DHT22;3254;47.372;8.512;2023-02-15T12:16:48;17.60;1.00
6443;DHT22;3254;47.372;8.512;2023-02-15T12:21:51;17.80;1.00
6443;DHT22;3254;47.372;8.512;2023-02-15T12:24:21;17.70;1.00
6443;DHT22;3254;47.372;8.512;2023-02-15T12:32:54;18.10;1.00
6443;DHT22;3254;47.372;8.512;2023-02-15T12:35:30;17.70;1.00
6443;DHT22;3254;47.372;8.512;2023-02-15T12:38:02;17.60;1.00
6443;DHT22;3254;47.372;8.512;2023-02-15T12:40:32;17.90;1.00
6443;DHT22;3254;47.372;8.512;2023-02-15T12:42:58;18.10;1.00
6443;DHT22;3254;47.372;8.512;2023-02-15T12:45:27;18.30;1.00
6443;DHT22;3254;47.372;8.512;2023-02-15T12:50:34;18.70;1.00
6443;DHT22;3254;47.372;8.512;2023-02-15T12:53:20;19.10;1.00
6443;DHT22;3254;47.372;8.512;2023-02-15T12:58:27;19.80;1.00
6443;DHT22;3254;47.372;8.512;2023-02-15T13:01:12;20.10;1.00
6443;DHT22;3254;47.372;8.512;2023-02-15T13:04:26;20.60;1.00
6443;DHT22;3254;47.372;8.512;2023-02-15T13:06:55;20.80;1.00
6443;DHT22;3254;47.372;8.512;2023-02-15T13:12:14;20.40;1.00
6443;DHT22;3254;47.372;8.512;2023-02-15T13:14:45;20.20;1.00
6443;DHT22;3254;47.372;8.512;2023-02-15T13:17:13;19.40;1.00
6443;DHT22;3254;47.372;8.512;2023-02-15T13:19:46;20.00;1.00
6443;DHT22;3254;47.372;8.512;2023-02-15T13:22:35;20.20;1.00
6443;DHT22;3254;47.372;8.512;2023-02-15T13:25:23;20.20;1.00
6443;DHT22;3254;47.372;8.512;2023-02-15T13:27:54;20.30;1.00
6443;DHT22;3254;47.372;8.512;2023-02-15T13:30:34;20.00;1.00
6443;DHT22;3254;47.372;8.512;2023-02-15T13:33:05;19.80;1.00
6443;DHT22;3254;47.372;8.512;2023-02-15T13:35:47;20.30;1.00
6443;DHT22;3254;47.372;8.512;2023-02-15T13:38:22;20.70;1.00
6443;DHT22;3254;47.372;8.512;2023-02-15T13:41:03;20.90;1.00
6443;DHT22;3254;47.372;8.512;2023-02-15T13:58:08;21.10;1.00
6443;DHT22;3254;47.372;8.512;2023-02-15T14:00:50;21.10;1.00
6443;DHT22;3254;47.372;8.512;2023-02-15T14:12:12;20.40;1.00
6443;DHT22;3254;47.372;8.512;2023-02-15T14:32:08;21.20;1.00
6443;DHT22;3254;47.372;8.512;2023-02-15T14:34:50;20.90;1.00
6443;DHT22;3254;47.372;8.512;2023-02-15T14:37:35;20.90;1.00
6443;DHT22;3254;47.372;8.512;2023-02-15T14:43:41;21.30;1.00
6443;DHT22;3254;47.372;8.512;2023-02-15T14:46:27;21.70;1.00
6443;DHT22;3254;47.372;8.512;2023-02-15T14:48:56;22.00;1.00
6443;DHT22;3254;47.372;8.512;2023-02-15T15:02:39;20.70;1.00
6443;DHT22;3254;47.372;8.512;2023-02-15T15:05:11;20.80;1.00
6443;DHT22;3254;47.372;8.512;2023-02-15T15:07:54;20.60;1.00
6443;DHT22;3254;47.372;8.512;2023-02-15T15:10:34;20.30;1.00
6443;DHT22;3254;47.372;8.512;2023-02-15T15:15:56;20.40;1.00
6443;DHT22;3254;47.372;8.512;2023-02-15T15:18:47;20.40;1.00
6443;DHT22;3254;47.372;8.512;2023-02-15T15:27:37;20.50;1.00
6443;DHT22;3254;47.372;8.512;2023-02-15T15:49:29;19.30;1.00
6443;DHT22;3254;47.372;8.512;2023-02-15T15:52:00;18.60;1.00
6443;DHT22;3254;47.372;8.512;2023-02-15T15:54:27;18.20;1.00
6443;DHT22;3254;47.372;8.512;2023-02-15T15:57:02;17.50;1.00
6443;DHT22;3254;47.372;8.512;2023-02-15T15:59:31;16.20;1.00
6443;DHT22;3254;47.372;8.512;2023-02-15T16:02:04;15.20;1.00
6443;DHT22;3254;47.372;8.512;2023-02-15T16:04:34;14.30;1.00
6443;DHT22;3254;47.372;8.512;2023-02-15T16:10:03;12.70;1.00
6443;DHT22;3254;47.372;8.512;2023-02-15T16:12:39;12.10;1.00
6443;DHT22;3254;47.372;8.512;2023-02-15T16:15:23;11.60;1.00
6443;DHT22;3254;47.372;8.512;2023-02-15T16:17:55;11.10;1.00
6443;DHT22;3254;47.372;8.512;2023-02-15T16:20:29;10.80;1.00
6443;DHT22;3254;47.372;8.512;2023-02-15T16:25:31;10.30;1.00
6443;DHT22;3254;47.372;8.512;2023-02-15T16:28:07;9.90;1.00
6443;DHT22;3254;47.372;8.512;2023-02-15T16:30:35;9.60;1.00
6443;DHT22;3254;47.372;8.512;2023-02-15T16:33:13;9.20;1.00
6443;DHT22;3254;47.372;8.512;2023-02-15T16:35:57;9.10;1.00
6443;DHT22;3254;47.372;8.512;2023-02-15T16:41:10;8.60;1.00
6443;DHT22;3254;47.372;8.512;2023-02-15T16:43:37;8.40;1.00
6443;DHT22;3254;47.372;8.512;2023-02-15T16:46:27;8.10;1.00
6443;DHT22;3254;47.372;8.512;2023-02-15T16:48:52;7.90;1.00
6443;DHT22;3254;47.372;8.512;2023-02-15T16:51:25;7.70;1.00
6443;DHT22;3254;47.372;8.512;2023-02-15T16:53:53;7.50;1.00
6443;DHT22;3254;47.372;8.512;2023-02-15T16:56:29;7.40;1.00
6443;DHT22;3254;47.372;8.512;2023-02-15T16:58:56;7.30;1.00
6443;DHT22;3254;47.372;8.512;2023-02-15T17:01:28;7.20;1.00
6443;DHT22;3254;47.372;8.512;2023-02-15T17:04:26;7.10;1.00
6443;DHT22;3254;47.372;8.512;2023-02-15T17:07:18;7.00;1.00
6443;DHT22;3254;47.372;8.512;2023-02-15T17:09:55;6.90;1.00
6443;DHT22;3254;47.372;8.512;2023-02-15T17:12:46;6.90;1.00
6443;DHT22;3254;47.372;8.512;2023-02-15T17:15:35;6.80;1.00
6443;DHT22;3254;47.372;8.512;2023-02-15T17:18:18;6.60;1.00
6443;DHT22;3254;47.372;8.512;2023-02-15T17:20:47;6.60;1.00
6443;DHT22;3254;47.372;8.512;2023-02-15T17:23:30;6.40;1.00
6443;DHT22;3254;47.372;8.512;2023-02-15T17:25:57;6.30;1.00
6443;DHT22;3254;47.372;8.512;2023-02-15T17:28:25;6.30;1.00
6443;DHT22;3254;47.372;8.512;2023-02-15T17:30:53;6.10;1.00
6443;DHT22;3254;47.372;8.512;2023-02-15T17:33:36;6.00;1.00
6443;DHT22;3254;47.372;8.512;2023-02-15T17:36:30;5.90;1.00
6443;DHT22;3254;47.372;8.512;2023-02-15T17:39:03;5.90;1.00
6443;DHT22;3254;47.372;8.512;2023-02-15T17:41:34;5.70;1.00
6443;DHT22;3254;47.372;8.512;2023-02-15T17:44:03;5.70;1.00
6443;DHT22;3254;47.372;8.512;2023-02-15T17:46:34;5.60;1.00
6443;DHT22;3254;47.372;8.512;2023-02-15T17:49:02;5.50;1.00
6443;DHT22;3254;47.372;8.512;2023-02-15T17:51:29;5.40;1.00
6443;DHT22;3254;47.372;8.512;2023-02-15T17:53:57;5.30;1.00
6443;DHT22;3254;47.372;8.512;2023-02-15T17:56:41;5.20;1.00
6443;DHT22;3254;47.372;8.512;2023-02-15T17:59:09;5.20;1.00
6443;DHT22;3254;47.372;8.512;2023-02-15T18:01:43;5.10;1.00
6443;DHT22;3254;47.372;8.512;2023-02-15T18:04:28;5.10;1.00
6443;DHT22;3254;47.372;8.512;2023-02-15T18:07:13;5.00;1.00
6443;DHT22;3254;47.372;8.512;2023-02-15T18:09:59;5.00;1.00
6443;DHT22;3254;47.372;8.512;2023-02-15T18:12:43;4.90;1.00
6443;DHT22;3254;47.372;8.512;2023-02-15T18:15:09;4.90;1.00
6443;DHT22;3254;47.372;8.512;2023-02-15T18:17:43;4.80;1.00
6443;DHT22;3254;47.372;8.512;2023-02-15T18:22:43;4.80;1.00
6443;DHT22;3254;47.372;8.512;2023-02-15T18:25:17;4.70;1.00
6443;DHT22;3254;47.372;8.512;2023-02-15T18:27:43;4.60;1.00
6443;DHT22;3254;47.372;8.512;2023-02-15T18:30:14;4.50;1.00
6443;DHT22;3254;47.372;8.512;2023-02-15T18:32:40;4.40;1.00
6443;DHT22;3254;47.372;8.512;2023-02-15T18:35:08;4.40;1.00
6443;DHT22;3254;47.372;8.512;2023-02-15T18:37:37;4.40;1.00
6443;DHT22;3254;47.372;8.512;2023-02-15T18:40:03;4.30;1.00
6443;DHT22;3254;47.372;8.512;2023-02-15T18:42:31;4.30;1.00
6443;DHT22;3254;47.372;8.512;2023-02-15T18:47:38;4.20;1.00
6443;DHT22;3254;47.372;8.512;2023-02-15T18:50:05;4.10;1.00
6443;DHT22;3254;47.372;8.512;2023-02-15T18:52:33;4.10;1.00
6443;DHT22;3254;47.372;8.512;2023-02-15T18:55:05;4.10;1.00
6443;DHT22;3254;47.372;8.512;2023-02-15T18:57:37;4.10;1.00
6443;DHT22;3254;47.372;8.512;2023-02-15T19:00:03;4.00;1.00
6443;DHT22;3254;47.372;8.512;2023-02-15T19:02:30;4.00;1.00
6443;DHT22;3254;47.372;8.512;2023-02-15T19:04:55;3.90;1.00
6443;DHT22;3254;47.372;8.512;2023-02-15T19:07:23;3.90;1.00
6443;DHT22;3254;47.372;8.512;2023-02-15T19:09:53;3.80;1.00
6443;DHT22;3254;47.372;8.512;2023-02-15T19:12:20;3.80;1.00
6443;DHT22;3254;47.372;8.512;2023-02-15T19:14:46;3.70;1.00
6443;DHT22;3254;47.372;8.512;2023-02-15T19:17:15;3.70;1.00
6443;DHT22;3254;47.372;8.512;2023-02-15T19:19:42;3.60;1.00
6443;DHT22;3254;47.372;8.512;2023-02-15T19:22:29;3.50;1.00
6443;DHT22;3254;47.372;8.512;2023-02-15T19:25:03;3.40;1.00
6443;DHT22;3254;47.372;8.512;2023-02-15T19:27:34;3.50;1.00
6443;DHT22;3254;47.372;8.512;2023-02-15T19:30:03;3.40;1.00
6443;DHT22;3254;47.372;8.512;2023-02-15T19:32:32;3.40;1.00
6443;DHT22;3254;47.372;8.512;2023-02-15T19:34:59;3.40;1.00
6443;DHT22;3254;47.372;8.512;2023-02-15T19:37:35;3.30;1.00
6443;DHT22;3254;47.372;8.512;2023-02-15T19:40:27;3.20;1.00
6443;DHT22;3254;47.372;8.512;2023-02-15T19:42:54;3.20;1.00
6443;DHT22;3254;47.372;8.512;2023-02-15T19:45:21;3.10;1.00
6443;DHT22;3254;47.372;8.512;2023-02-15T19:47:49;3.00;1.00
6443;DHT22;3254;47.372;8.512;2023-02-15T19:50:18;3.10;1.00
6443;DHT22;3254;47.372;8.512;2023-02-15T19:52:45;3.00;1.00
6443;DHT22;3254;47.372;8.512;2023-02-15T19:55:34;2.90;1.00
6443;DHT22;3254;47.372;8.512;2023-02-15T19:58:02;2.90;2.30
6443;DHT22;3254;47.372;8.512;2023-02-15T20:00:31;2.80;4.80
6443;DHT22;3254;47.372;8.512;2023-02-15T20:02:57;2.70;6.00
6443;DHT22;3254;47.372;8.512;2023-02-15T20:05:24;2.60;7.60
6443;DHT22;3254;47.372;8.512;2023-02-15T20:07:52;2.60;8.70
6443;DHT22;3254;47.372;8.512;2023-02-15T20:10:20;2.50;9.20
6443;DHT22;3254;47.372;8.512;2023-02-15T20:12:46;2.50;12.90
6443;DHT22;3254;47.372;8.512;2023-02-15T20:15:24;2.60;14.80
6443;DHT22;3254;47.372;8.512;2023-02-15T20:17:52;2.60;15.30